Time;durP1;ratioP1;P1;durP2;ratioP2;P2;SDS_P1;SDS_P2;PMS_P1;PMS_P2;Temp;Humidity;BMP_temperature;BMP_pressure;BME280_temperature;BME280_humidity;BME280_pressure;Samples;Min_cycle;Max_cycle;Signal;HPM_P1;HPM_P2
2023/04/22 00:02:15;;;;;;;11.32;6.32;;;;;;;8.16;100.00;93333.28;5011112;28;20045;-59
2023/04/22 00:04:46;;;;;;;9.57;5.40;;;;;;;8.16;100.00;93330.53;5010752;28;20099;-59
2023/04/22 00:07:14;;;;;;;7.60;4.85;;;;;;;8.10;100.00;93335.69;5010649;28;20398;-59
2023/04/22 00:09:42;;;;;;;8.75;4.93;;;;;;;7.96;100.00;93327.72;5010216;28;20042;-60
2023/04/22 00:12:10;;;;;;;9.45;5.20;;;;;;;7.95;100.00;93328.91;5010708;28;20054;-59
2023/04/22 00:14:37;;;;;;;9.23;5.72;;;;;;;7.91;100.00;93323.50;5010239;28;20052;-60
2023/04/22 00:17:05;;;;;;;8.03;5.07;;;;;;;7.83;100.00;93330.25;5010750;28;20360;-60
2023/04/22 00:19:33;;;;;;;7.82;5.38;;;;;;;7.89;100.00;93325.09;5010289;28;20049;-59
2023/04/22 00:22:00;;;;;;;7.80;5.13;;;;;;;7.95;100.00;93326.19;5010429;28;20068;-60
2023/04/22 00:24:26;;;;;;;8.35;4.93;;;;;;;7.98;100.00;93322.63;5010385;28;20337;-60
2023/04/22 00:26:53;;;;;;;10.35;5.78;;;;;;;7.98;100.00;93323.38;5010059;28;20424;-60
2023/04/22 00:29:20;;;;;;;8.40;5.20;;;;;;;7.99;100.00;93316.75;5010350;28;20046;-60
2023/04/22 00:31:46;;;;;;;8.40;5.53;;;;;;;7.98;100.00;93322.63;5009808;28;20384;-60
2023/04/22 00:34:16;;;;;;;8.75;5.45;;;;;;;7.90;100.00;93326.63;5010163;28;20099;-60
2023/04/22 00:36:43;;;;;;;9.10;5.20;;;;;;;7.88;100.00;93318.84;5009708;28;20364;-60
2023/04/22 00:39:11;;;;;;;8.25;5.07;;;;;;;7.90;100.00;93319.22;5010267;28;20053;-60
2023/04/22 00:41:41;;;;;;;7.97;5.07;;;;;;;7.76;100.00;93311.22;5009350;28;20076;-60
2023/04/22 00:44:12;;;;;;;9.63;5.70;;;;;;;7.72;100.00;93321.44;5010049;28;20081;-60
2023/04/22 00:46:39;;;;;;;9.75;5.40;;;;;;;7.63;100.00;93321.94;5009504;28;20049;-60
2023/04/22 00:49:06;;;;;;;10.40;5.70;;;;;;;7.70;100.00;93319.09;5009996;28;20069;-60
2023/04/22 00:51:33;;;;;;;10.05;5.85;;;;;;;7.66;100.00;93321.09;5009630;28;20060;-60
2023/04/22 00:54:00;;;;;;;9.60;5.73;;;;;;;7.65;100.00;93327.78;4993065;28;20457;-60
2023/04/22 00:56:30;;;;;;;8.50;5.68;;;;;;;7.65;100.00;93325.03;4997910;28;20038;-60
2023/04/22 00:58:58;;;;;;;8.23;4.93;;;;;;;7.65;100.00;93324.28;5009262;28;20042;-60
2023/04/22 01:01:25;;;;;;;8.93;5.55;;;;;;;7.69;100.00;93316.81;5009723;28;20065;-60
2023/04/22 01:03:52;;;;;;;9.60;5.70;;;;;;;7.69;100.00;93328.50;5009196;28;20042;-59
2023/04/22 01:06:21;;;;;;;10.70;5.73;;;;;;;7.71;100.00;93326.13;5009822;28;20384;-60
2023/04/22 01:08:47;;;;;;;10.63;6.10;;;;;;;7.67;100.00;93328.13;5008948;28;20061;-60
2023/04/22 01:11:14;;;;;;;12.10;6.50;;;;;;;7.68;100.00;93310.53;5009441;28;20057;-60
2023/04/22 01:13:41;;;;;;;11.15;6.22;;;;;;;7.63;100.00;93316.47;5009027;28;20080;-60
2023/04/22 01:16:09;;;;;;;10.80;6.20;;;;;;;7.65;100.00;93307.88;5008096;28;20632;-60
2023/04/22 01:18:36;;;;;;;9.97;5.87;;;;;;;7.57;100.00;93316.16;5008913;28;20499;-59
2023/04/22 01:21:03;;;;;;;10.82;5.85;;;;;;;7.52;100.00;93318.56;5009239;28;20052;-59
2023/04/22 01:23:30;;;;;;;10.35;6.20;;;;;;;7.49;100.00;93317.44;5009483;28;20394;-58
2023/04/22 01:25:57;;;;;;;8.35;5.32;;;;;;;7.39;100.00;93318.38;5008805;28;20070;-60
2023/04/22 01:28:24;;;;;;;9.18;5.60;;;;;;;7.29;100.00;93319.28;5009069;28;20056;-60
2023/04/22 01:30:52;;;;;;;8.73;5.70;;;;;;;7.26;100.00;93322.81;5008903;28;20509;-57
2023/04/22 01:33:18;;;;;;;9.93;5.75;;;;;;;7.23;100.00;93324.41;5008858;28;20058;-58
2023/04/22 01:35:45;;;;;;;8.30;5.70;;;;;;;7.20;100.00;93323.28;5008582;28;20470;-57
2023/04/22 01:38:12;;;;;;;10.55;5.90;;;;;;;7.11;100.00;93320.25;5009039;28;20041;-57
2023/04/22 01:40:39;;;;;;;10.73;6.15;;;;;;;6.98;100.00;93320.03;5008166;28;20042;-58
2023/04/22 01:43:06;;;;;;;11.23;6.30;;;;;;;6.91;100.00;93324.78;5008763;28;20073;-58
2023/04/22 01:45:33;;;;;;;9.35;5.70;;;;;;;6.89;100.00;93321.69;5008571;28;20049;-58
2023/04/22 01:48:00;;;;;;;9.65;5.95;;;;;;;6.86;100.00;93326.00;5007550;28;20121;-59
2023/04/22 01:50:27;;;;;;;9.93;5.85;;;;;;;6.84;100.00;93320.19;5008973;28;20072;-58
2023/04/22 01:52:54;;;;;;;9.25;5.90;;;;;;;6.85;100.00;93323.69;4999813;28;20056;-58
2023/04/22 01:55:21;;;;;;;11.53;6.33;;;;;;;6.86;100.00;93322.47;4989924;28;20061;-58
2023/04/22 01:57:47;;;;;;;11.18;5.90;;;;;;;6.84;100.00;93333.03;5007854;28;20042;-58
2023/04/22 02:00:15;;;;;;;10.00;6.10;;;;;;;6.83;100.00;93320.56;5008424;28;20046;-58
2023/04/22 02:02:41;;;;;;;9.80;6.10;;;;;;;6.78;100.00;93319.84;5008336;28;20107;-58
2023/04/22 02:05:09;;;;;;;10.20;6.13;;;;;;;6.75;100.00;93320.63;5008879;28;20060;-58
2023/04/22 02:07:36;;;;;;;11.00;6.20;;;;;;;6.76;100.00;93313.22;5007805;28;20048;-58
2023/04/22 02:10:04;;;;;;;9.45;5.75;;;;;;;6.77;100.00;93315.56;5008656;28;20049;-58
2023/04/22 02:12:31;;;;;;;10.27;5.90;;;;;;;6.74;100.00;93315.59;5008246;28;20068;-60
2023/04/22 02:14:58;;;;;;;10.43;6.82;;;;;;;6.72;100.00;93315.22;5006383;28;21425;-59
2023/04/22 02:17:25;;;;;;;9.70;6.32;;;;;;;6.69;100.00;93322.25;5008434;28;20423;-60
2023/04/22 02:19:52;;;;;;;10.50;6.30;;;;;;;6.67;100.00;93321.91;5001610;28;20045;-59
2023/04/22 02:22:20;;;;;;;12.65;6.63;;;;;;;6.69;100.00;93325.00;4998044;28;20070;-60
2023/04/22 02:24:47;;;;;;;11.32;6.20;;;;;;;6.67;100.00;93318.41;5006602;28;20155;-59
2023/04/22 02:27:14;;;;;;;10.90;6.15;;;;;;;6.54;100.00;93327.09;5006914;28;20499;-59
2023/04/22 02:29:41;;;;;;;11.68;6.55;;;;;;;6.53;100.00;93330.22;5007799;28;20038;-59
2023/04/22 02:32:08;;;;;;;9.50;5.83;;;;;;;6.55;100.00;93333.31;5008527;28;20049;-59
2023/04/22 02:34:35;;;;;;;9.30;6.07;;;;;;;6.54;100.00;93331.75;5007744;28;20042;-59
2023/04/22 02:37:02;;;;;;;12.23;6.85;;;;;;;6.53;100.00;93332.94;5008390;28;20050;-59
2023/04/22 02:39:28;;;;;;;9.43;6.38;;;;;;;6.53;100.00;93336.44;5008284;28;20042;-59
2023/04/22 02:41:55;;;;;;;10.60;7.00;;;;;;;6.49;100.00;93330.25;5007723;28;20462;-59
2023/04/22 02:44:22;;;;;;;10.90;6.40;;;;;;;6.46;100.00;93330.28;5008166;28;20509;-59
2023/04/22 02:46:49;;;;;;;10.88;6.50;;;;;;;6.40;100.00;93321.78;5007863;28;20372;-59
2023/04/22 02:49:15;;;;;;;12.68;6.90;;;;;;;6.30;100.00;93319.91;5008332;28;20389;-59
2023/04/22 02:51:42;;;;;;;11.77;6.32;;;;;;;6.23;100.00;93320.75;5007823;28;20387;-59
2023/04/22 02:54:08;;;;;;;12.02;7.25;;;;;;;6.06;100.00;93321.69;5008227;28;20778;-60
2023/04/22 02:56:35;;;;;;;11.50;7.03;;;;;;;6.11;100.00;93319.28;5007783;28;20069;-59
2023/04/22 02:59:02;;;;;;;11.02;6.55;;;;;;;6.09;100.00;93327.06;5007966;28;20119;-59
2023/04/22 03:01:29;;;;;;;11.15;6.95;;;;;;;6.07;100.00;93325.94;5008209;28;20566;-59
2023/04/22 03:03:56;;;;;;;11.18;7.00;;;;;;;6.04;100.00;93332.16;5006189;28;20046;-59
2023/04/22 03:06:23;;;;;;;11.45;7.30;;;;;;;6.00;100.00;93329.50;5008183;28;20099;-59
2023/04/22 03:08:50;;;;;;;11.13;6.83;;;;;;;6.01;100.00;93333.75;5007694;28;20045;-59
2023/04/22 03:11:17;;;;;;;11.55;6.57;;;;;;;6.00;100.00;93332.22;5008189;28;20554;-59
2023/04/22 03:13:43;;;;;;;11.32;6.80;;;;;;;5.96;100.00;93329.53;5007190;28;20064;-59
2023/04/22 03:16:10;;;;;;;10.85;6.82;;;;;;;5.96;100.00;93326.03;5008027;28;20046;-59
2023/04/22 03:18:37;;;;;;;12.10;7.18;;;;;;;5.91;100.00;93332.63;5007274;28;20072;-59
2023/04/22 03:21:04;;;;;;;10.90;6.43;;;;;;;6.00;100.00;93341.16;5011683;28;20058;-59
2023/04/22 03:23:31;;;;;;;12.10;6.82;;;;;;;6.00;100.00;93340.38;5011536;28;20046;-59
2023/04/22 03:25:58;;;;;;;11.50;6.80;;;;;;;6.03;100.00;93345.03;5010828;28;21483;-59
2023/04/22 03:28:24;;;;;;;11.48;6.93;;;;;;;6.04;100.00;93335.69;5011614;28;20050;-59
2023/04/22 03:30:51;;;;;;;11.55;6.95;;;;;;;6.04;100.00;93335.69;5011033;28;20053;-59
2023/04/22 03:33:18;;;;;;;13.10;6.77;;;;;;;6.02;100.00;93338.03;5011734;28;20056;-59
2023/04/22 03:35:48;;;;;;;10.93;6.55;;;;;;;5.99;100.00;93328.69;5011036;28;20414;-59
2023/04/22 03:38:14;;;;;;;12.95;6.93;;;;;;;5.97;100.00;93330.28;5011383;28;20052;-60
2023/04/22 03:40:42;;;;;;;12.15;6.93;;;;;;;5.94;100.00;93337.28;5010636;28;20038;-59
2023/04/22 03:43:09;;;;;;;12.23;7.40;;;;;;;5.80;100.00;93345.56;5011278;28;20046;-59
2023/04/22 03:45:35;;;;;;;16.60;7.27;;;;;;;5.64;100.00;93348.00;5010626;28;20056;-59
2023/04/22 03:48:02;;;;;;;14.18;7.43;;;;;;;5.71;100.00;93342.50;5011236;28;20046;-59
2023/04/22 03:50:29;;;;;;;12.38;7.30;;;;;;;5.62;100.00;93344.88;5002823;28;20060;-59
2023/04/22 03:52:56;;;;;;;11.65;6.82;;;;;;;5.56;100.00;93348.03;4991293;28;20046;-59
2023/04/22 03:55:23;;;;;;;11.93;7.00;;;;;;;5.64;100.00;93346.03;5007171;28;20349;-59
2023/04/22 03:57:49;;;;;;;10.60;6.63;;;;;;;5.66;100.00;93345.66;5009115;28;20045;-59
2023/04/22 04:00:16;;;;;;;11.93;6.82;;;;;;;5.68;100.00;93340.56;5010703;28;20050;-59
2023/04/22 04:02:43;;;;;;;12.00;7.40;;;;;;;5.69;100.00;93344.84;5010434;28;20041;-59
2023/04/22 04:05:10;;;;;;;12.25;6.95;;;;;;;5.69;100.00;93347.56;5010719;28;20077;-59
2023/04/22 04:07:37;;;;;;;12.25;6.72;;;;;;;5.67;100.00;93352.63;4997093;28;20041;-59
2023/04/22 04:10:04;;;;;;;13.13;6.57;;;;;;;5.49;100.00;93353.50;5010821;28;20056;-59
2023/04/22 04:12:31;;;;;;;11.63;7.00;;;;;;;5.44;100.00;93355.88;5010346;28;20052;-57
2023/04/22 04:14:58;;;;;;;13.10;7.00;;;;;;;5.45;100.00;93360.13;5010725;28;20046;-60
2023/04/22 04:17:25;;;;;;;11.52;6.50;;;;;;;5.51;100.00;93361.25;5010444;28;20053;-59
2023/04/22 04:19:52;;;;;;;11.50;7.15;;;;;;;5.55;100.00;93362.81;5009935;28;20052;-59
2023/04/22 04:22:19;;;;;;;10.33;6.30;;;;;;;5.54;100.00;93369.41;5010254;28;20042;-59
2023/04/22 04:24:46;;;;;;;11.00;6.88;;;;;;;5.52;100.00;93362.81;5009785;28;20052;-59
2023/04/22 04:27:13;;;;;;;11.55;6.70;;;;;;;5.52;100.00;93363.59;5010436;28;20045;-59
2023/04/22 04:29:40;;;;;;;11.15;6.93;;;;;;;5.56;100.00;93361.63;5009463;28;20057;-60
2023/04/22 04:32:08;;;;;;;11.45;7.00;;;;;;;5.51;100.00;93353.88;5010373;28;20056;-59
2023/04/22 04:34:38;;;;;;;12.27;7.13;;;;;;;5.50;100.00;93365.16;5009757;28;20053;-59
2023/04/22 04:37:05;;;;;;;11.13;6.55;;;;;;;5.57;100.00;93367.84;5010501;28;20060;-59
2023/04/22 04:39:32;;;;;;;10.77;6.93;;;;;;;5.65;100.00;93363.13;5009584;28;20054;-59
2023/04/22 04:41:59;;;;;;;11.32;6.95;;;;;;;5.44;100.00;93364.03;5009863;28;20056;-59
2023/04/22 04:44:26;;;;;;;11.73;7.55;;;;;;;5.22;100.00;93358.69;5009944;28;20053;-59
2023/04/22 04:46:53;;;;;;;12.37;7.60;;;;;;;5.35;100.00;93367.16;5009547;28;20046;-59
2023/04/22 04:49:20;;;;;;;13.45;7.85;;;;;;;5.51;100.00;93364.75;5008810;28;20491;-59
2023/04/22 04:51:47;;;;;;;12.32;7.35;;;;;;;5.58;100.00;93366.69;4990932;28;20054;-60
2023/04/22 04:54:14;;;;;;;12.88;7.38;;;;;;;5.75;100.00;93362.28;4997337;28;20462;-59
2023/04/22 04:56:41;;;;;;;12.32;7.28;;;;;;;5.80;100.00;93367.34;5009563;28;20076;-59
2023/04/22 04:59:08;;;;;;;12.77;7.73;;;;;;;5.88;100.00;93363.41;5010014;28;20495;-59
2023/04/22 05:01:34;;;;;;;12.98;7.53;;;;;;;5.95;100.00;93366.09;5009266;28;20406;-58
2023/04/22 05:04:01;;;;;;;14.23;7.88;;;;;;;5.84;100.00;93365.38;5009667;28;20041;-59
2023/04/22 05:06:28;;;;;;;13.45;8.25;;;;;;;5.92;100.00;93368.81;5010045;28;20557;-59
2023/04/22 05:08:55;;;;;;;14.15;8.05;;;;;;;6.16;100.00;93372.59;5009231;28;20073;-59
2023/04/22 05:11:22;;;;;;;13.03;8.87;;;;;;;6.15;100.00;93365.56;5009723;28;20088;-59
2023/04/22 05:13:48;;;;;;;13.60;8.90;;;;;;;6.29;100.00;93379.09;5009249;28;20527;-60
2023/04/22 05:16:15;;;;;;;12.35;7.63;;;;;;;6.34;100.00;93365.03;5009847;28;20046;-59
2023/04/22 05:18:42;;;;;;;12.00;7.05;;;;;;;6.35;100.00;93373.97;5008914;28;20054;-59
2023/04/22 05:21:09;;;;;;;11.32;7.30;;;;;;;6.41;100.00;93369.66;5009411;28;20453;-59
2023/04/22 05:23:35;;;;;;;13.73;7.63;;;;;;;6.48;100.00;93366.88;5008995;28;20570;-59
2023/04/22 05:26:02;;;;;;;11.32;7.20;;;;;;;6.70;100.00;93370.19;5009450;28;20517;-59
2023/04/22 05:28:29;;;;;;;11.43;7.40;;;;;;;6.91;100.00;93368.41;5009484;28;20041;-59
2023/04/22 05:30:56;;;;;;;11.27;7.10;;;;;;;7.04;100.00;93366.69;5008726;28;20388;-59
2023/04/22 05:33:23;;;;;;;10.75;7.50;;;;;;;7.07;100.00;93371.34;5009188;28;20046;-59
2023/04/22 05:35:51;;;;;;;13.53;7.60;;;;;;;7.25;100.00;93367.66;5008646;28;20682;-60
2023/04/22 05:38:20;;;;;;;11.68;7.30;;;;;;;7.37;100.00;93373.34;5009262;28;20443;-59
2023/04/22 05:40:47;;;;;;;10.90;7.57;;;;;;;7.48;100.00;93369.72;5006827;28;20056;-60
2023/04/22 05:43:14;;;;;;;12.07;7.45;;;;;;;7.36;100.00;93369.09;5008311;28;20042;-59
2023/04/22 05:45:41;;;;;;;10.88;7.30;;;;;;;7.27;100.00;93373.50;5008509;28;20060;-59
2023/04/22 05:48:08;;;;;;;14.03;8.50;;;;;;;7.32;100.00;93368.34;5007866;28;20119;-60
2023/04/22 05:50:35;;;;;;;12.10;7.47;;;;;;;7.26;100.00;93369.97;5008371;28;20034;-59
2023/04/22 05:53:01;;;;;;;13.00;8.05;;;;;;;7.39;100.00;93375.69;5008660;28;20575;-59
2023/04/22 05:55:28;;;;;;;12.00;7.82;;;;;;;7.52;100.00;93373.94;5007586;28;20064;-59
2023/04/22 05:57:55;;;;;;;12.18;7.93;;;;;;;7.82;100.00;93366.16;5006913;28;20042;-60
2023/04/22 06:00:21;;;;;;;13.03;7.87;;;;;;;8.03;100.00;93351.41;5007400;28;20042;-59
2023/04/22 06:02:48;;;;;;;15.13;7.70;;;;;;;8.22;100.00;93352.72;5008440;28;20697;-59
2023/04/22 06:05:15;;;;;;;19.70;7.93;;;;;;;8.31;100.00;93353.75;5008432;28;20053;-60
2023/04/22 06:07:42;;;;;;;10.68;7.45;;;;;;;8.45;100.00;93355.50;5006634;28;20050;-59
2023/04/22 06:10:09;;;;;;;10.43;7.22;;;;;;;8.27;100.00;93355.75;5008603;28;20647;-60
2023/04/22 06:12:36;;;;;;;15.00;8.80;;;;;;;8.16;100.00;93352.41;4992486;28;20054;-59
2023/04/22 06:15:04;;;;;;;14.05;8.50;;;;;;;7.95;100.00;93351.53;4996022;28;20037;-59
2023/04/22 06:17:30;;;;;;;13.95;9.05;;;;;;;7.72;100.00;93354.19;5007318;28;20053;-59
2023/04/22 06:19:57;;;;;;;20.20;11.20;;;;;;;7.97;100.00;93345.66;5007534;28;20600;-60
2023/04/22 06:22:24;;;;;;;17.95;10.65;;;;;;;8.27;100.00;93344.81;5008280;28;20421;-59
2023/04/22 06:24:50;;;;;;;15.70;9.30;;;;;;;8.34;100.00;93343.94;5007834;28;20045;-59
2023/04/22 06:27:17;;;;;;;15.70;8.85;;;;;;;8.13;100.00;93347.75;5008384;28;20050;-59
2023/04/22 06:29:44;;;;;;;68.30;36.78;;;;;;;8.12;100.00;93340.75;5007558;28;20091;-60
2023/04/22 06:32:11;;;;;;;27.95;15.38;;;;;;;8.07;100.00;93352.94;5008310;28;20062;-59
2023/04/22 06:34:37;;;;;;;41.80;24.23;;;;;;;8.14;100.00;93352.81;5007934;28;20042;-60
2023/04/22 06:37:05;;;;;;;67.67;39.70;;;;;;;8.09;100.00;93355.22;5008511;28;20054;-59
2023/04/22 06:39:31;;;;;;;66.40;40.60;;;;;;;8.24;100.00;93350.34;5008276;28;20353;-59
2023/04/22 06:41:58;;;;;;;36.40;22.63;;;;;;;8.57;100.00;93362.31;5006986;28;21804;-59
2023/04/22 06:44:25;;;;;;;56.42;33.00;;;;;;;8.85;100.00;93361.06;5006701;28;20430;-59
2023/04/22 06:46:51;;;;;;;50.75;32.33;;;;;;;8.60;100.00;93364.25;5007509;28;20150;-59
2023/04/22 06:49:21;;;;;;;44.70;28.77;;;;;;;8.75;100.00;93367.50;5008384;28;20499;-59
2023/04/22 06:51:48;;;;;;;30.02;18.17;;;;;;;9.02;100.00;93364.69;5007511;28;20048;-60
2023/04/22 06:54:14;;;;;;;49.60;30.05;;;;;;;10.20;100.00;93366.97;5009302;28;20072;-60
2023/04/22 06:56:41;;;;;;;39.10;26.50;;;;;;;10.79;100.00;93370.72;5010608;28;20062;-60
2023/04/22 06:59:08;;;;;;;18.52;12.32;;;;;;;12.23;100.00;93362.06;5012301;28;20060;-60
2023/04/22 07:01:34;;;;;;;48.83;35.13;;;;;;;12.46;100.00;93362.97;5011411;28;20277;-60
2023/04/22 07:04:01;;;;;;;30.58;20.77;;;;;;;12.70;100.00;93366.91;5011889;28;20048;-60
2023/04/22 07:06:28;;;;;;;17.70;11.48;;;;;;;13.41;100.00;93362.22;5011865;28;20384;-60
2023/04/22 07:08:55;;;;;;;43.55;30.27;;;;;;;14.92;100.00;93368.38;5011332;28;20115;-60
2023/04/22 07:11:21;;;;;;;16.73;11.90;;;;;;;16.03;93.07;93371.97;5005700;28;20096;-60
2023/04/22 07:13:48;;;;;;;13.23;9.40;;;;;;;16.73;83.32;93374.66;4992513;28;20411;-58
2023/04/22 07:16:15;;;;;;;9.13;6.43;;;;;;;16.52;84.52;93381.22;5008751;28;20046;-58
2023/04/22 07:18:41;;;;;;;12.85;7.25;;;;;;;16.20;86.28;93380.72;5010791;28;20111;-58
2023/04/22 07:21:08;;;;;;;9.68;6.90;;;;;;;15.87;87.59;93380.59;5011536;28;20041;-58
2023/04/22 07:23:35;;;;;;;9.25;7.00;;;;;;;16.75;82.91;93374.22;5010703;28;20044;-58
2023/04/22 07:26:01;;;;;;;10.77;8.53;;;;;;;17.22;80.52;93375.50;5011534;28;20483;-58
2023/04/22 07:28:28;;;;;;;10.20;8.30;;;;;;;17.95;76.68;93373.47;5011219;28;20044;-58
2023/04/22 07:30:55;;;;;;;10.90;8.50;;;;;;;20.69;67.87;93362.94;5010976;28;20430;-58
2023/04/22 07:33:22;;;;;;;8.32;6.80;;;;;;;23.07;54.82;93356.16;5011098;28;20054;-58
2023/04/22 07:35:49;;;;;;;9.30;7.07;;;;;;;23.45;51.60;93365.75;5010592;28;20056;-59
2023/04/22 07:38:15;;;;;;;9.10;6.43;;;;;;;25.86;43.61;93350.53;5011381;28;20045;-58
2023/04/22 07:40:42;;;;;;;8.88;6.10;;;;;;;26.80;40.93;93359.50;5009100;28;20045;-59
2023/04/22 07:43:09;;;;;;;7.28;5.60;;;;;;;26.00;40.26;93357.03;5010796;28;20164;-59
2023/04/22 07:45:36;;;;;;;9.13;5.88;;;;;;;22.99;47.14;93366.34;5010601;28;20403;-59
2023/04/22 07:48:03;;;;;;;7.13;5.90;;;;;;;21.14;54.85;93363.25;5010819;28;20050;-59
2023/04/22 07:50:30;;;;;;;7.27;6.10;;;;;;;22.15;53.09;93353.78;5010745;28;20045;-58
2023/04/22 07:52:57;;;;;;;7.18;5.43;;;;;;;23.02;50.59;93348.53;5010084;28;21034;-58
2023/04/22 07:55:23;;;;;;;6.88;5.53;;;;;;;24.78;45.81;93346.50;5010574;28;20045;-59
2023/04/22 07:57:50;;;;;;;6.03;5.10;;;;;;;25.24;43.37;93342.78;5010214;28;20095;-59
2023/04/22 08:00:17;;;;;;;6.30;4.65;;;;;;;24.30;42.56;93343.00;5010616;28;20225;-58
2023/04/22 08:02:45;;;;;;;5.30;4.27;;;;;;;23.37;44.84;93341.63;5010309;28;20054;-58
2023/04/22 08:05:12;;;;;;;5.05;3.97;;;;;;;25.09;41.65;93342.38;5009893;28;20052;-59
2023/04/22 08:07:39;;;;;;;6.45;4.00;;;;;;;22.63;43.96;93344.47;5010228;28;20042;-58
2023/04/22 08:10:06;;;;;;;5.75;4.25;;;;;;;21.84;47.29;93338.72;5010485;28;20052;-58
2023/04/22 08:12:32;;;;;;;4.78;3.60;;;;;;;21.44;46.95;93337.06;4994483;28;20072;-59
2023/04/22 08:14:59;;;;;;;6.10;3.60;;;;;;;21.25;47.93;93333.88;4997818;28;20111;-58
2023/04/22 08:17:26;;;;;;;5.35;3.20;;;;;;;20.42;48.75;93344.69;5010643;28;20329;-58
2023/04/22 08:19:53;;;;;;;7.38;4.00;;;;;;;21.58;47.44;93340.94;5008357;28;20042;-58
2023/04/22 08:22:19;;;;;;;5.20;3.22;;;;;;;21.65;48.33;93346.00;5010568;28;20038;-58
2023/04/22 08:24:46;;;;;;;4.32;3.05;;;;;;;22.52;44.56;93342.44;5009917;28;20091;-58
2023/04/22 08:27:13;;;;;;;5.53;3.00;;;;;;;21.88;46.66;93341.28;5010516;28;20046;-58
2023/04/22 08:29:39;;;;;;;3.90;3.20;;;;;;;22.07;45.88;93339.56;5009669;28;20042;-58
2023/04/22 08:32:07;;;;;;;4.32;3.00;;;;;;;22.11;45.11;93344.88;5010515;28;20056;-58
2023/04/22 08:34:33;;;;;;;4.35;2.80;;;;;;;21.15;46.99;93336.88;5009752;28;20053;-57
2023/04/22 08:37:01;;;;;;;4.90;3.22;;;;;;;21.75;46.56;93341.72;5009751;28;20077;-58
2023/04/22 08:39:28;;;;;;;3.87;2.80;;;;;;;21.66;44.32;93344.75;5009713;28;20050;-58
2023/04/22 08:41:56;;;;;;;3.67;2.60;;;;;;;21.43;44.88;93339.09;5009114;28;20444;-58
2023/04/22 08:44:24;;;;;;;3.78;2.50;;;;;;;21.44;44.46;93337.06;5009884;28;20048;-58
2023/04/22 08:46:52;;;;;;;4.20;2.35;;;;;;;22.40;41.71;93343.69;5008952;28;20171;-58
2023/04/22 08:49:19;;;;;;;3.10;2.15;;;;;;;21.50;42.12;93335.81;5009596;28;20068;-58
2023/04/22 08:51:45;;;;;;;3.13;2.10;;;;;;;22.46;41.09;93341.66;5009368;28;20407;-58
2023/04/22 08:54:12;;;;;;;4.05;2.20;;;;;;;21.99;40.92;93337.75;5009930;28;20057;-58
2023/04/22 08:56:43;;;;;;;4.30;2.28;;;;;;;23.17;39.61;93342.69;5009252;28;20049;-58
2023/04/22 08:59:11;;;;;;;4.15;2.08;;;;;;;23.01;39.34;93338.59;5009972;28;20058;-58
2023/04/22 09:01:40;;;;;;;6.35;2.40;;;;;;;24.08;38.42;93335.47;5008928;28;20147;-58
2023/04/22 09:04:09;;;;;;;4.13;2.00;;;;;;;22.73;39.15;93334.53;5009642;28;20061;-58
2023/04/22 09:06:37;;;;;;;3.10;2.00;;;;;;;22.96;39.83;93330.97;5009051;28;20042;-58
2023/04/22 09:09:05;;;;;;;3.30;2.00;;;;;;;23.53;37.62;93329.59;5009583;28;20048;-58
2023/04/22 09:11:32;;;;;;;2.70;1.98;;;;;;;24.83;36.75;93326.81;5001703;28;20050;-59
2023/04/22 09:13:59;;;;;;;3.30;1.90;;;;;;;24.42;35.28;93324.81;4989593;28;21725;-59
2023/04/22 09:16:25;;;;;;;3.93;2.10;;;;;;;23.24;37.83;93322.53;5006989;28;20394;-58
2023/04/22 09:18:52;;;;;;;3.33;1.90;;;;;;;23.72;36.91;93316.53;5008871;28;20068;-58
2023/04/22 09:21:19;;;;;;;2.83;1.80;;;;;;;24.74;36.07;93313.13;5009326;28;20383;-59
2023/04/22 09:23:51;;;;;;;4.25;2.10;;;;;;;25.04;35.77;93307.47;5008882;28;20505;-58
2023/04/22 09:26:19;;;;;;;3.30;2.20;;;;;;;23.96;36.00;93311.59;5009084;28;20050;-59
2023/04/22 09:28:53;;;;;;;3.40;2.00;;;;;;;24.21;36.23;93307.63;5008349;28;20046;-59
2023/04/22 09:31:21;;;;;;;3.78;2.10;;;;;;;22.73;38.57;93303.00;5008887;28;20095;-58
2023/04/22 09:33:53;;;;;;;3.60;2.20;;;;;;;23.47;37.46;93303.66;5008577;28;20045;-58
2023/04/22 09:36:28;;;;;;;3.42;2.22;;;;;;;22.98;38.05;93308.81;5008690;28;20053;-58
2023/04/22 09:38:59;;;;;;;4.95;2.20;;;;;;;24.17;37.67;93300.78;5008448;28;20042;-58
2023/04/22 09:41:34;;;;;;;4.50;2.20;;;;;;;22.46;37.75;93307.38;5004061;28;20052;-58
2023/04/22 09:44:02;;;;;;;4.25;2.00;;;;;;;23.71;37.00;93311.44;5000786;28;20922;-58
2023/04/22 09:46:30;;;;;;;3.10;2.20;;;;;;;23.23;38.01;93309.84;5008819;28;20042;-58
2023/04/22 09:48:58;;;;;;;3.72;2.60;;;;;;;23.04;39.06;93301.22;5008239;28;21430;-58
2023/04/22 09:51:28;;;;;;;3.38;2.20;;;;;;;23.28;38.77;93304.22;5008968;28;20041;-58
2023/04/22 09:54:08;;;;;;;11.43;2.40;;;;;;;24.77;37.29;93292.44;5008825;28;20137;-58
2023/04/22 09:56:47;;;;;;;4.43;2.53;;;;;;;22.43;40.44;93303.53;5008503;28;20095;-58
2023/04/22 09:59:25;;;;;;;4.00;2.63;;;;;;;22.90;40.42;93300.97;5009056;28;20119;-58
2023/04/22 10:01:55;;;;;;;4.00;2.70;;;;;;;23.02;40.18;93300.97;5008183;28;20050;-59
2023/04/22 10:04:24;;;;;;;4.40;2.60;;;;;;;22.99;40.85;93293.56;5008630;28;20092;-58
2023/04/22 10:06:52;;;;;;;5.23;2.70;;;;;;;22.53;41.15;93298.44;5007895;28;20045;-58
2023/04/22 10:09:22;;;;;;;4.00;2.70;;;;;;;22.64;42.01;93297.69;5008378;28;20494;-58
2023/04/22 10:11:51;;;;;;;4.28;2.90;;;;;;;22.38;41.42;93292.38;4993295;28;20091;-58
2023/04/22 10:14:17;;;;;;;4.10;2.70;;;;;;;23.16;41.73;93294.34;5008586;28;20050;-58
2023/04/22 10:16:46;;;;;;;5.78;2.70;;;;;;;22.98;38.74;93297.63;5007643;28;20099;-59
2023/04/22 10:19:22;;;;;;;5.67;2.87;;;;;;;21.96;40.90;93289.25;5008492;28;20396;-58
2023/04/22 10:21:54;;;;;;;4.28;2.78;;;;;;;22.74;38.49;93287.78;5007725;28;20069;-58
2023/04/22 10:24:24;;;;;;;4.97;2.70;;;;;;;23.07;38.81;93295.34;5008355;28;20052;-58
2023/04/22 10:26:58;;;;;;;4.38;2.65;;;;;;;22.86;36.85;93296.91;5006343;28;20058;-58
2023/04/22 10:29:33;;;;;;;4.47;2.50;;;;;;;22.17;39.05;93295.34;5007946;28;20505;-58
2023/04/22 10:32:10;;;;;;;3.37;2.60;;;;;;;22.10;39.36;93296.63;5006061;28;20141;-58
2023/04/22 10:34:40;;;;;;;4.00;2.40;;;;;;;22.63;37.59;93293.38;4993649;28;20048;-59
2023/04/22 10:37:11;;;;;;;5.43;2.30;;;;;;;24.05;34.72;93294.47;5008143;28;20050;-58
2023/04/22 10:39:40;;;;;;;3.97;2.40;;;;;;;24.82;33.17;93294.41;5007760;28;20038;-59
2023/04/22 10:42:16;;;;;;;3.92;2.40;;;;;;;23.76;33.82;93293.81;5007186;28;20475;-58
2023/04/22 10:44:59;;;;;;;3.63;2.50;;;;;;;23.83;32.76;93290.53;5007500;28;20303;-58
2023/04/22 10:47:31;;;;;;;4.95;2.17;;;;;;;23.76;31.42;93293.81;5007832;28;20058;-58
2023/04/22 10:50:07;;;;;;;3.35;2.25;;;;;;;23.87;32.58;93296.59;4988699;28;20410;-58
2023/04/22 10:52:34;;;;;;;3.85;2.22;;;;;;;23.57;33.53;93290.13;4993671;28;20037;-58
2023/04/22 10:55:01;;;;;;;4.00;2.20;;;;;;;23.58;31.61;93286.78;5008050;28;20044;-58
2023/04/22 10:57:36;;;;;;;3.93;2.50;;;;;;;23.17;34.03;93290.25;5007639;28;20390;-58
2023/04/22 11:00:19;;;;;;;3.47;1.98;;;;;;;23.60;31.51;93292.63;5006823;28;20866;-59
2023/04/22 11:03:07;;;;;;;3.80;2.10;;;;;;;22.99;31.44;93294.34;5007470;28;20441;-58
2023/04/22 11:05:34;;;;;;;4.47;2.30;;;;;;;22.33;32.64;93291.84;5007317;28;20414;-58
2023/04/22 11:08:12;;;;;;;4.10;2.15;;;;;;;21.47;34.75;93292.16;5007741;28;20084;-58
2023/04/22 11:10:46;;;;;;;3.40;2.13;;;;;;;20.98;34.01;93302.53;5007129;28;20530;-58
2023/04/22 11:13:15;;;;;;;4.65;2.10;;;;;;;20.69;34.57;93301.59;5007913;28;20050;-58
2023/04/22 11:15:45;;;;;;;4.13;2.22;;;;;;;21.21;33.96;93292.28;5007171;28;20050;-60
2023/04/22 11:18:16;;;;;;;3.35;2.20;;;;;;;21.66;33.04;93294.50;5007705;28;20107;-58
2023/04/22 11:20:44;;;;;;;3.72;2.22;;;;;;;21.51;33.29;93301.06;5007338;28;20152;-60
2023/04/22 11:23:10;;;;;;;4.00;2.20;;;;;;;21.68;32.86;93303.91;5006344;28;20491;-60
2023/04/22 11:25:37;;;;;;;4.82;2.38;;;;;;;21.78;33.59;93307.22;5007584;28;20048;-60
2023/04/22 11:28:04;;;;;;;3.50;2.22;;;;;;;22.00;32.52;93297.38;5007842;28;20062;-60
2023/04/22 11:30:30;;;;;;;3.70;2.22;;;;;;;22.33;32.25;93297.44;5006268;28;20518;-58
2023/04/22 11:32:59;;;;;;;4.25;2.40;;;;;;;22.52;32.48;93305.34;5006725;28;20293;-58